sensor_id;sensor_type;location;lat;lon;timestamp;temperature;humidity
5276;DHT22;2661;50.786;12.728;2022-10-30T00:00:42;11.20;1.00
5276;DHT22;2661;50.786;12.728;2022-10-30T00:03:09;11.20;1.00
5276;DHT22;2661;50.786;12.728;2022-10-30T00:05:39;11.10;1.00
5276;DHT22;2661;50.786;12.728;2022-10-30T00:08:06;11.20;1.00
5276;DHT22;2661;50.786;12.728;2022-10-30T00:10:33;11.10;1.00
5276;DHT22;2661;50.786;12.728;2022-10-30T00:12:59;11.10;1.00
5276;DHT22;2661;50.786;12.728;2022-10-30T00:15:26;11.20;1.00
5276;DHT22;2661;50.786;12.728;2022-10-30T00:17:53;11.20;1.00
5276;DHT22;2661;50.786;12.728;2022-10-30T00:20:19;11.20;1.00
5276;DHT22;2661;50.786;12.728;2022-10-30T00:22:46;11.10;1.00
5276;DHT22;2661;50.786;12.728;2022-10-30T00:25:12;11.00;1.00
5276;DHT22;2661;50.786;12.728;2022-10-30T00:27:39;11.00;1.00
5276;DHT22;2661;50.786;12.728;2022-10-30T00:30:06;10.90;1.00
5276;DHT22;2661;50.786;12.728;2022-10-30T00:32:33;10.80;1.00
5276;DHT22;2661;50.786;12.728;2022-10-30T00:34:59;10.90;1.00
5276;DHT22;2661;50.786;12.728;2022-10-30T00:37:26;10.90;1.00
5276;DHT22;2661;50.786;12.728;2022-10-30T00:39:52;10.90;1.00
5276;DHT22;2661;50.786;12.728;2022-10-30T00:42:19;10.90;1.00
5276;DHT22;2661;50.786;12.728;2022-10-30T00:44:51;10.80;99.90
5276;DHT22;2661;50.786;12.728;2022-10-30T00:47:35;10.70;1.00
5276;DHT22;2661;50.786;12.728;2022-10-30T00:50:04;10.60;1.00
5276;DHT22;2661;50.786;12.728;2022-10-30T00:52:33;10.60;1.00
5276;DHT22;2661;50.786;12.728;2022-10-30T00:55:04;10.50;1.00
5276;DHT22;2661;50.786;12.728;2022-10-30T00:57:31;10.50;1.00
5276;DHT22;2661;50.786;12.728;2022-10-30T00:59:58;10.40;1.00
5276;DHT22;2661;50.786;12.728;2022-10-30T01:02:25;10.40;1.00
5276;DHT22;2661;50.786;12.728;2022-10-30T01:04:52;10.40;1.00
5276;DHT22;2661;50.786;12.728;2022-10-30T01:07:19;10.40;1.00
5276;DHT22;2661;50.786;12.728;2022-10-30T01:09:46;10.30;1.00
5276;DHT22;2661;50.786;12.728;2022-10-30T01:12:13;10.30;1.00
5276;DHT22;2661;50.786;12.728;2022-10-30T01:14:42;10.40;1.00
5276;DHT22;2661;50.786;12.728;2022-10-30T01:20:01;10.40;1.00
5276;DHT22;2661;50.786;12.728;2022-10-30T01:25:21;10.40;1.00
5276;DHT22;2661;50.786;12.728;2022-10-30T01:28:14;10.40;1.00
5276;DHT22;2661;50.786;12.728;2022-10-30T01:33:34;10.30;1.00
5276;DHT22;2661;50.786;12.728;2022-10-30T01:38:37;10.30;1.00
5276;DHT22;2661;50.786;12.728;2022-10-30T01:41:04;10.40;1.00
5276;DHT22;2661;50.786;12.728;2022-10-30T01:43:31;10.40;99.90
5276;DHT22;2661;50.786;12.728;2022-10-30T01:48:50;10.40;99.90
5276;DHT22;2661;50.786;12.728;2022-10-30T01:51:34;10.40;99.90
5276;DHT22;2661;50.786;12.728;2022-10-30T01:56:34;10.40;99.90
5276;DHT22;2661;50.786;12.728;2022-10-30T02:01:47;10.40;99.90
5276;DHT22;2661;50.786;12.728;2022-10-30T02:04:15;10.60;99.90
5276;DHT22;2661;50.786;12.728;2022-10-30T02:06:41;10.60;99.90
5276;DHT22;2661;50.786;12.728;2022-10-30T02:09:08;10.70;99.90
5276;DHT22;2661;50.786;12.728;2022-10-30T02:11:34;10.80;99.90
5276;DHT22;2661;50.786;12.728;2022-10-30T02:14:03;10.90;99.90
5276;DHT22;2661;50.786;12.728;2022-10-30T02:16:34;11.10;99.90
5276;DHT22;2661;50.786;12.728;2022-10-30T02:19:02;11.60;99.90
5276;DHT22;2661;50.786;12.728;2022-10-30T02:21:29;12.00;99.90
5276;DHT22;2661;50.786;12.728;2022-10-30T02:23:55;12.10;99.90
5276;DHT22;2661;50.786;12.728;2022-10-30T02:26:22;12.10;99.90
5276;DHT22;2661;50.786;12.728;2022-10-30T02:28:49;12.00;99.90
5276;DHT22;2661;50.786;12.728;2022-10-30T02:31:15;12.00;99.90
5276;DHT22;2661;50.786;12.728;2022-10-30T02:33:43;11.90;99.90
5276;DHT22;2661;50.786;12.728;2022-10-30T02:36:09;11.80;99.90
5276;DHT22;2661;50.786;12.728;2022-10-30T02:38:36;11.80;99.90
5276;DHT22;2661;50.786;12.728;2022-10-30T02:41:02;11.70;99.90
5276;DHT22;2661;50.786;12.728;2022-10-30T02:43:29;11.60;99.90
5276;DHT22;2661;50.786;12.728;2022-10-30T02:45:56;11.60;99.90
5276;DHT22;2661;50.786;12.728;2022-10-30T02:48:22;11.50;99.90
5276;DHT22;2661;50.786;12.728;2022-10-30T02:54:17;11.40;99.90
5276;DHT22;2661;50.786;12.728;2022-10-30T02:56:43;11.40;99.90
5276;DHT22;2661;50.786;12.728;2022-10-30T02:59:10;11.40;99.90
5276;DHT22;2661;50.786;12.728;2022-10-30T03:01:36;11.30;99.90
5276;DHT22;2661;50.786;12.728;2022-10-30T03:04:03;11.30;99.90
5276;DHT22;2661;50.786;12.728;2022-10-30T03:06:30;11.20;99.90
5276;DHT22;2661;50.786;12.728;2022-10-30T03:08:57;11.20;99.90
5276;DHT22;2661;50.786;12.728;2022-10-30T03:11:23;11.20;99.90
5276;DHT22;2661;50.786;12.728;2022-10-30T03:13:50;11.20;99.90
5276;DHT22;2661;50.786;12.728;2022-10-30T03:16:18;11.10;99.90
5276;DHT22;2661;50.786;12.728;2022-10-30T03:18:45;11.10;99.90
5276;DHT22;2661;50.786;12.728;2022-10-30T03:21:14;11.00;99.90
5276;DHT22;2661;50.786;12.728;2022-10-30T03:23:41;11.00;99.90
5276;DHT22;2661;50.786;12.728;2022-10-30T03:26:08;11.00;99.90
5276;DHT22;2661;50.786;12.728;2022-10-30T03:28:34;11.00;99.90
5276;DHT22;2661;50.786;12.728;2022-10-30T03:31:03;10.90;99.90
5276;DHT22;2661;50.786;12.728;2022-10-30T03:33:30;10.90;99.90
5276;DHT22;2661;50.786;12.728;2022-10-30T03:35:57;10.80;99.90
5276;DHT22;2661;50.786;12.728;2022-10-30T03:38:24;10.80;99.90
5276;DHT22;2661;50.786;12.728;2022-10-30T03:40:51;10.80;99.90
5276;DHT22;2661;50.786;12.728;2022-10-30T03:43:17;10.80;99.90
5276;DHT22;2661;50.786;12.728;2022-10-30T03:45:45;10.80;99.90
5276;DHT22;2661;50.786;12.728;2022-10-30T03:48:12;10.90;99.90
5276;DHT22;2661;50.786;12.728;2022-10-30T03:50:38;10.90;99.90
5276;DHT22;2661;50.786;12.728;2022-10-30T03:53:05;10.90;99.90
5276;DHT22;2661;50.786;12.728;2022-10-30T03:55:31;10.90;99.90
5276;DHT22;2661;50.786;12.728;2022-10-30T03:57:58;10.90;99.90
5276;DHT22;2661;50.786;12.728;2022-10-30T04:00:25;10.90;99.90
5276;DHT22;2661;50.786;12.728;2022-10-30T04:02:51;10.80;99.90
5276;DHT22;2661;50.786;12.728;2022-10-30T04:05:19;10.90;99.90
5276;DHT22;2661;50.786;12.728;2022-10-30T04:07:46;10.80;99.90
5276;DHT22;2661;50.786;12.728;2022-10-30T04:10:12;10.90;99.90
5276;DHT22;2661;50.786;12.728;2022-10-30T04:12:44;10.80;99.90
5276;DHT22;2661;50.786;12.728;2022-10-30T04:15:11;10.90;99.90
5276;DHT22;2661;50.786;12.728;2022-10-30T04:17:37;10.80;99.90
5276;DHT22;2661;50.786;12.728;2022-10-30T04:20:04;10.90;99.90
5276;DHT22;2661;50.786;12.728;2022-10-30T04:22:31;10.90;99.90
5276;DHT22;2661;50.786;12.728;2022-10-30T04:24:57;10.90;99.90
5276;DHT22;2661;50.786;12.728;2022-10-30T04:27:24;10.90;99.90
5276;DHT22;2661;50.786;12.728;2022-10-30T04:29:50;10.80;99.90
5276;DHT22;2661;50.786;12.728;2022-10-30T04:32:18;10.80;99.90
5276;DHT22;2661;50.786;12.728;2022-10-30T04:34:45;10.80;99.90
5276;DHT22;2661;50.786;12.728;2022-10-30T04:37:11;10.70;99.90
5276;DHT22;2661;50.786;12.728;2022-10-30T04:39:38;10.70;99.90
5276;DHT22;2661;50.786;12.728;2022-10-30T04:42:11;10.70;99.90
5276;DHT22;2661;50.786;12.728;2022-10-30T04:44:38;10.70;99.90
5276;DHT22;2661;50.786;12.728;2022-10-30T04:47:04;10.70;99.90
5276;DHT22;2661;50.786;12.728;2022-10-30T04:49:31;10.60;99.90
5276;DHT22;2661;50.786;12.728;2022-10-30T04:51:57;10.60;99.90
5276;DHT22;2661;50.786;12.728;2022-10-30T04:54:24;10.60;99.90
5276;DHT22;2661;50.786;12.728;2022-10-30T04:56:50;10.60;99.90
5276;DHT22;2661;50.786;12.728;2022-10-30T04:59:17;10.60;99.90
5276;DHT22;2661;50.786;12.728;2022-10-30T05:01:44;10.60;99.90
5276;DHT22;2661;50.786;12.728;2022-10-30T05:04:10;10.60;99.90
5276;DHT22;2661;50.786;12.728;2022-10-30T05:06:37;10.60;99.90
5276;DHT22;2661;50.786;12.728;2022-10-30T05:09:03;10.60;99.90
5276;DHT22;2661;50.786;12.728;2022-10-30T05:11:30;10.60;99.90
5276;DHT22;2661;50.786;12.728;2022-10-30T05:13:57;10.60;99.90
5276;DHT22;2661;50.786;12.728;2022-10-30T05:16:23;10.60;99.90
5276;DHT22;2661;50.786;12.728;2022-10-30T05:18:50;10.60;99.90
5276;DHT22;2661;50.786;12.728;2022-10-30T05:21:16;10.50;99.90
5276;DHT22;2661;50.786;12.728;2022-10-30T05:23:43;10.50;99.90
5276;DHT22;2661;50.786;12.728;2022-10-30T05:26:10;10.60;99.90
5276;DHT22;2661;50.786;12.728;2022-10-30T05:28:36;10.60;99.90
5276;DHT22;2661;50.786;12.728;2022-10-30T05:31:03;10.60;99.90
5276;DHT22;2661;50.786;12.728;2022-10-30T05:33:29;10.50;99.90
5276;DHT22;2661;50.786;12.728;2022-10-30T05:35:56;10.50;99.90
5276;DHT22;2661;50.786;12.728;2022-10-30T05:38:22;10.50;99.90
5276;DHT22;2661;50.786;12.728;2022-10-30T05:40:49;10.60;1.00
5276;DHT22;2661;50.786;12.728;2022-10-30T05:43:16;10.50;99.90
5276;DHT22;2661;50.786;12.728;2022-10-30T05:45:42;10.50;1.00
5276;DHT22;2661;50.786;12.728;2022-10-30T05:48:09;10.50;1.00
5276;DHT22;2661;50.786;12.728;2022-10-30T05:50:36;10.40;1.00
5276;DHT22;2661;50.786;12.728;2022-10-30T05:53:03;10.50;1.00
5276;DHT22;2661;50.786;12.728;2022-10-30T05:55:29;10.50;1.00
5276;DHT22;2661;50.786;12.728;2022-10-30T05:58:00;10.50;99.90
5276;DHT22;2661;50.786;12.728;2022-10-30T06:00:28;10.40;99.90
5276;DHT22;2661;50.786;12.728;2022-10-30T06:02:59;10.40;99.90
5276;DHT22;2661;50.786;12.728;2022-10-30T06:05:28;10.40;1.00
5276;DHT22;2661;50.786;12.728;2022-10-30T06:07:55;10.50;1.00
5276;DHT22;2661;50.786;12.728;2022-10-30T06:10:22;10.50;1.00
5276;DHT22;2661;50.786;12.728;2022-10-30T06:12:52;10.60;1.00
5276;DHT22;2661;50.786;12.728;2022-10-30T06:15:19;10.60;1.00
5276;DHT22;2661;50.786;12.728;2022-10-30T06:17:45;10.60;1.00
5276;DHT22;2661;50.786;12.728;2022-10-30T06:20:12;10.60;1.00
5276;DHT22;2661;50.786;12.728;2022-10-30T06:22:39;10.60;99.90
5276;DHT22;2661;50.786;12.728;2022-10-30T06:25:05;10.60;99.90
5276;DHT22;2661;50.786;12.728;2022-10-30T06:27:35;10.60;99.90
5276;DHT22;2661;50.786;12.728;2022-10-30T06:30:02;10.70;1.00
5276;DHT22;2661;50.786;12.728;2022-10-30T06:32:28;10.70;1.00
5276;DHT22;2661;50.786;12.728;2022-10-30T06:34:55;10.80;1.00
5276;DHT22;2661;50.786;12.728;2022-10-30T06:37:21;10.80;1.00
5276;DHT22;2661;50.786;12.728;2022-10-30T06:39:48;10.80;1.00
5276;DHT22;2661;50.786;12.728;2022-10-30T06:42:14;10.80;99.90
5276;DHT22;2661;50.786;12.728;2022-10-30T06:44:41;10.90;1.00
5276;DHT22;2661;50.786;12.728;2022-10-30T06:47:07;10.90;99.90
5276;DHT22;2661;50.786;12.728;2022-10-30T06:49:34;10.90;99.90
5276;DHT22;2661;50.786;12.728;2022-10-30T06:52:01;11.00;99.90
5276;DHT22;2661;50.786;12.728;2022-10-30T06:54:27;11.00;99.90
5276;DHT22;2661;50.786;12.728;2022-10-30T06:56:54;11.10;1.00
5276;DHT22;2661;50.786;12.728;2022-10-30T06:59:20;11.10;1.00
5276;DHT22;2661;50.786;12.728;2022-10-30T07:01:47;11.20;99.90
5276;DHT22;2661;50.786;12.728;2022-10-30T07:04:13;11.20;99.90
5276;DHT22;2661;50.786;12.728;2022-10-30T07:06:40;11.30;99.90
5276;DHT22;2661;50.786;12.728;2022-10-30T07:09:07;11.30;99.90
5276;DHT22;2661;50.786;12.728;2022-10-30T07:11:35;11.40;99.90
5276;DHT22;2661;50.786;12.728;2022-10-30T07:14:02;11.40;99.90
5276;DHT22;2661;50.786;12.728;2022-10-30T07:16:28;11.40;99.90
5276;DHT22;2661;50.786;12.728;2022-10-30T07:18:55;11.50;99.90
5276;DHT22;2661;50.786;12.728;2022-10-30T07:21:26;11.60;99.90
5276;DHT22;2661;50.786;12.728;2022-10-30T07:23:52;11.60;99.90
5276;DHT22;2661;50.786;12.728;2022-10-30T07:26:19;11.70;1.00
5276;DHT22;2661;50.786;12.728;2022-10-30T07:28:45;11.70;1.00
5276;DHT22;2661;50.786;12.728;2022-10-30T07:31:12;11.80;99.90
5276;DHT22;2661;50.786;12.728;2022-10-30T07:33:49;11.80;1.00
5276;DHT22;2661;50.786;12.728;2022-10-30T07:36:16;11.90;99.90
5276;DHT22;2661;50.786;12.728;2022-10-30T07:38:42;12.00;99.90
5276;DHT22;2661;50.786;12.728;2022-10-30T07:41:09;12.00;99.90
5276;DHT22;2661;50.786;12.728;2022-10-30T07:43:36;12.00;99.90
5276;DHT22;2661;50.786;12.728;2022-10-30T07:46:02;12.10;99.90
5276;DHT22;2661;50.786;12.728;2022-10-30T07:48:29;12.10;99.90
5276;DHT22;2661;50.786;12.728;2022-10-30T07:50:56;12.10;99.90
5276;DHT22;2661;50.786;12.728;2022-10-30T07:53:22;12.10;99.90
5276;DHT22;2661;50.786;12.728;2022-10-30T07:55:49;12.20;99.90
5276;DHT22;2661;50.786;12.728;2022-10-30T07:58:16;12.20;99.90
5276;DHT22;2661;50.786;12.728;2022-10-30T08:00:42;12.30;99.90
5276;DHT22;2661;50.786;12.728;2022-10-30T08:03:09;12.40;99.90
5276;DHT22;2661;50.786;12.728;2022-10-30T08:05:36;12.50;99.90
5276;DHT22;2661;50.786;12.728;2022-10-30T08:08:03;12.60;99.90
5276;DHT22;2661;50.786;12.728;2022-10-30T08:10:29;12.60;99.90
5276;DHT22;2661;50.786;12.728;2022-10-30T08:12:56;12.70;99.90
5276;DHT22;2661;50.786;12.728;2022-10-30T08:15:22;12.70;99.90
5276;DHT22;2661;50.786;12.728;2022-10-30T08:17:49;12.70;99.90
5276;DHT22;2661;50.786;12.728;2022-10-30T08:20:17;12.80;99.90
5276;DHT22;2661;50.786;12.728;2022-10-30T08:22:44;12.80;99.90
5276;DHT22;2661;50.786;12.728;2022-10-30T08:25:11;12.80;99.90
5276;DHT22;2661;50.786;12.728;2022-10-30T08:27:37;12.80;99.90
5276;DHT22;2661;50.786;12.728;2022-10-30T08:30:04;12.90;99.90
5276;DHT22;2661;50.786;12.728;2022-10-30T08:32:31;13.00;99.90
5276;DHT22;2661;50.786;12.728;2022-10-30T08:34:57;13.00;99.90
5276;DHT22;2661;50.786;12.728;2022-10-30T08:37:24;13.10;99.90
5276;DHT22;2661;50.786;12.728;2022-10-30T08:39:50;13.20;99.90
5276;DHT22;2661;50.786;12.728;2022-10-30T08:42:17;13.30;99.90
5276;DHT22;2661;50.786;12.728;2022-10-30T08:44:43;13.40;99.90
5276;DHT22;2661;50.786;12.728;2022-10-30T08:47:10;13.50;99.90
5276;DHT22;2661;50.786;12.728;2022-10-30T08:49:36;13.60;99.90
5276;DHT22;2661;50.786;12.728;2022-10-30T08:52:06;13.70;99.90
5276;DHT22;2661;50.786;12.728;2022-10-30T08:54:33;13.80;99.90
5276;DHT22;2661;50.786;12.728;2022-10-30T08:56:59;13.90;99.90
5276;DHT22;2661;50.786;12.728;2022-10-30T08:59:26;14.00;99.90
5276;DHT22;2661;50.786;12.728;2022-10-30T09:01:52;14.10;99.90
5276;DHT22;2661;50.786;12.728;2022-10-30T09:04:19;14.20;99.90
5276;DHT22;2661;50.786;12.728;2022-10-30T09:06:46;14.30;99.90
5276;DHT22;2661;50.786;12.728;2022-10-30T09:09:13;14.30;99.90
5276;DHT22;2661;50.786;12.728;2022-10-30T09:11:40;14.40;99.90
5276;DHT22;2661;50.786;12.728;2022-10-30T09:14:07;14.40;99.90
5276;DHT22;2661;50.786;12.728;2022-10-30T09:16:34;14.50;99.90
5276;DHT22;2661;50.786;12.728;2022-10-30T09:19:00;14.60;99.90
5276;DHT22;2661;50.786;12.728;2022-10-30T09:21:51;14.70;99.90
5276;DHT22;2661;50.786;12.728;2022-10-30T09:24:17;14.80;99.90
5276;DHT22;2661;50.786;12.728;2022-10-30T09:26:45;14.80;99.90
5276;DHT22;2661;50.786;12.728;2022-10-30T09:29:12;14.80;99.90
5276;DHT22;2661;50.786;12.728;2022-10-30T09:31:38;14.80;99.90
5276;DHT22;2661;50.786;12.728;2022-10-30T09:34:05;14.90;99.90
5276;DHT22;2661;50.786;12.728;2022-10-30T09:36:32;14.90;99.90
5276;DHT22;2661;50.786;12.728;2022-10-30T09:38:58;14.90;99.90
5276;DHT22;2661;50.786;12.728;2022-10-30T09:41:35;15.00;99.90
5276;DHT22;2661;50.786;12.728;2022-10-30T09:47:04;15.20;99.90
5276;DHT22;2661;50.786;12.728;2022-10-30T09:52:07;15.30;99.90
5276;DHT22;2661;50.786;12.728;2022-10-30T09:54:49;15.40;99.90
5276;DHT22;2661;50.786;12.728;2022-10-30T09:59:58;15.50;99.90
5276;DHT22;2661;50.786;12.728;2022-10-30T10:04:58;15.50;99.90
5276;DHT22;2661;50.786;12.728;2022-10-30T10:07:27;15.50;99.90
5276;DHT22;2661;50.786;12.728;2022-10-30T10:10:00;15.60;99.90
5276;DHT22;2661;50.786;12.728;2022-10-30T10:14:58;15.70;99.90
5276;DHT22;2661;50.786;12.728;2022-10-30T10:17:30;15.80;99.90
5276;DHT22;2661;50.786;12.728;2022-10-30T10:19:59;15.90;99.90
5276;DHT22;2661;50.786;12.728;2022-10-30T10:24:53;16.10;99.90
5276;DHT22;2661;50.786;12.728;2022-10-30T10:35:20;16.70;99.90
5276;DHT22;2661;50.786;12.728;2022-10-30T10:38:01;16.80;99.90
5276;DHT22;2661;50.786;12.728;2022-10-30T10:43:30;17.10;99.90
5276;DHT22;2661;50.786;12.728;2022-10-30T10:46:06;17.20;99.90
5276;DHT22;2661;50.786;12.728;2022-10-30T10:48:54;17.20;99.90
5276;DHT22;2661;50.786;12.728;2022-10-30T10:51:27;17.30;99.90
5276;DHT22;2661;50.786;12.728;2022-10-30T10:54:00;17.30;99.90
5276;DHT22;2661;50.786;12.728;2022-10-30T10:56:29;17.30;99.90
5276;DHT22;2661;50.786;12.728;2022-10-30T10:58:58;17.40;99.90
5276;DHT22;2661;50.786;12.728;2022-10-30T11:01:47;17.40;99.90
5276;DHT22;2661;50.786;12.728;2022-10-30T11:04:27;17.50;99.90
5276;DHT22;2661;50.786;12.728;2022-10-30T11:06:56;17.60;99.90
5276;DHT22;2661;50.786;12.728;2022-10-30T11:09:23;17.70;99.90
5276;DHT22;2661;50.786;12.728;2022-10-30T11:11:53;17.80;99.90
5276;DHT22;2661;50.786;12.728;2022-10-30T11:14:22;17.90;99.90
5276;DHT22;2661;50.786;12.728;2022-10-30T11:19:15;18.10;99.90
5276;DHT22;2661;50.786;12.728;2022-10-30T11:21:44;18.30;99.90
5276;DHT22;2661;50.786;12.728;2022-10-30T11:26:51;18.40;99.90
5276;DHT22;2661;50.786;12.728;2022-10-30T11:29:21;18.40;99.90
5276;DHT22;2661;50.786;12.728;2022-10-30T11:32:03;18.40;99.90
5276;DHT22;2661;50.786;12.728;2022-10-30T11:34:31;18.40;99.90
5276;DHT22;2661;50.786;12.728;2022-10-30T11:36:58;18.40;99.90
5276;DHT22;2661;50.786;12.728;2022-10-30T11:39:27;18.40;99.90
5276;DHT22;2661;50.786;12.728;2022-10-30T11:41:58;18.50;99.90
5276;DHT22;2661;50.786;12.728;2022-10-30T11:44:36;18.60;99.90
5276;DHT22;2661;50.786;12.728;2022-10-30T11:47:03;18.60;99.90
5276;DHT22;2661;50.786;12.728;2022-10-30T11:49:32;18.70;99.90
5276;DHT22;2661;50.786;12.728;2022-10-30T11:52:01;18.60;99.90
5276;DHT22;2661;50.786;12.728;2022-10-30T11:54:28;18.70;99.90
5276;DHT22;2661;50.786;12.728;2022-10-30T11:56:55;18.70;99.90
5276;DHT22;2661;50.786;12.728;2022-10-30T11:59:22;18.80;99.90
5276;DHT22;2661;50.786;12.728;2022-10-30T12:01:57;18.80;99.90
5276;DHT22;2661;50.786;12.728;2022-10-30T12:04:25;19.00;99.90
5276;DHT22;2661;50.786;12.728;2022-10-30T12:09:40;19.10;99.90
5276;DHT22;2661;50.786;12.728;2022-10-30T12:12:10;19.10;99.90
5276;DHT22;2661;50.786;12.728;2022-10-30T12:14:37;19.30;99.90
5276;DHT22;2661;50.786;12.728;2022-10-30T12:17:04;19.40;99.90
5276;DHT22;2661;50.786;12.728;2022-10-30T12:19:31;19.30;99.90
5276;DHT22;2661;50.786;12.728;2022-10-30T12:21:58;19.30;99.90
5276;DHT22;2661;50.786;12.728;2022-10-30T12:26:53;19.30;99.90
5276;DHT22;2661;50.786;12.728;2022-10-30T12:29:21;19.30;99.90
5276;DHT22;2661;50.786;12.728;2022-10-30T12:31:55;19.30;99.90
5276;DHT22;2661;50.786;12.728;2022-10-30T12:34:32;19.30;99.90
5276;DHT22;2661;50.786;12.728;2022-10-30T12:37:10;19.20;99.90
5276;DHT22;2661;50.786;12.728;2022-10-30T12:42:07;19.20;99.90
5276;DHT22;2661;50.786;12.728;2022-10-30T12:44:44;19.30;99.90
5276;DHT22;2661;50.786;12.728;2022-10-30T12:47:21;19.30;99.90
5276;DHT22;2661;50.786;12.728;2022-10-30T12:50:14;19.30;99.90
5276;DHT22;2661;50.786;12.728;2022-10-30T12:52:47;19.20;99.90
5276;DHT22;2661;50.786;12.728;2022-10-30T13:00:43;19.30;99.90
5276;DHT22;2661;50.786;12.728;2022-10-30T13:03:19;19.30;99.90
5276;DHT22;2661;50.786;12.728;2022-10-30T13:05:52;19.30;99.90
5276;DHT22;2661;50.786;12.728;2022-10-30T13:08:24;19.30;99.90
5276;DHT22;2661;50.786;12.728;2022-10-30T13:10:53;19.30;99.90
5276;DHT22;2661;50.786;12.728;2022-10-30T13:13:22;19.30;99.90
5276;DHT22;2661;50.786;12.728;2022-10-30T13:15:51;19.20;99.90
5276;DHT22;2661;50.786;12.728;2022-10-30T13:18:20;19.20;99.90
5276;DHT22;2661;50.786;12.728;2022-10-30T13:20:53;19.20;99.90
5276;DHT22;2661;50.786;12.728;2022-10-30T13:23:23;19.30;99.90
5276;DHT22;2661;50.786;12.728;2022-10-30T13:28:26;19.40;99.90
5276;DHT22;2661;50.786;12.728;2022-10-30T13:30:59;19.50;99.90
5276;DHT22;2661;50.786;12.728;2022-10-30T13:33:48;19.50;99.90
5276;DHT22;2661;50.786;12.728;2022-10-30T13:36:19;19.60;99.90
5276;DHT22;2661;50.786;12.728;2022-10-30T13:38:52;19.70;99.90
5276;DHT22;2661;50.786;12.728;2022-10-30T13:51:53;19.60;99.90
5276;DHT22;2661;50.786;12.728;2022-10-30T13:54:31;19.50;99.90
5276;DHT22;2661;50.786;12.728;2022-10-30T13:57:00;19.50;99.90
5276;DHT22;2661;50.786;12.728;2022-10-30T13:59:55;19.40;99.90
5276;DHT22;2661;50.786;12.728;2022-10-30T14:04:56;19.20;99.90
5276;DHT22;2661;50.786;12.728;2022-10-30T14:20:55;19.00;99.90
5276;DHT22;2661;50.786;12.728;2022-10-30T14:28:28;18.80;99.90
5276;DHT22;2661;50.786;12.728;2022-10-30T14:31:00;18.70;99.90
5276;DHT22;2661;50.786;12.728;2022-10-30T14:36:12;18.50;99.90
5276;DHT22;2661;50.786;12.728;2022-10-30T14:38:39;18.50;99.90
5276;DHT22;2661;50.786;12.728;2022-10-30T14:44:05;18.30;99.90
5276;DHT22;2661;50.786;12.728;2022-10-30T14:49:22;18.10;99.90
5276;DHT22;2661;50.786;12.728;2022-10-30T14:51:57;17.90;99.90
5276;DHT22;2661;50.786;12.728;2022-10-30T14:54:34;17.80;99.90
5276;DHT22;2661;50.786;12.728;2022-10-30T14:57:10;17.70;99.90
5276;DHT22;2661;50.786;12.728;2022-10-30T14:59:45;17.60;99.90
5276;DHT22;2661;50.786;12.728;2022-10-30T15:05:23;17.30;99.90
5276;DHT22;2661;50.786;12.728;2022-10-30T15:07:46;17.30;99.90
5276;DHT22;2661;50.786;12.728;2022-10-30T15:10:17;17.20;99.90
5276;DHT22;2661;50.786;12.728;2022-10-30T15:12:57;17.10;99.90
5276;DHT22;2661;50.786;12.728;2022-10-30T15:15:29;17.00;99.90
5276;DHT22;2661;50.786;12.728;2022-10-30T15:17:56;17.00;99.90
5276;DHT22;2661;50.786;12.728;2022-10-30T15:20:27;16.90;99.90
5276;DHT22;2661;50.786;12.728;2022-10-30T15:22:55;16.80;99.90
5276;DHT22;2661;50.786;12.728;2022-10-30T15:25:25;16.80;99.90
5276;DHT22;2661;50.786;12.728;2022-10-30T15:27:53;16.70;99.90
5276;DHT22;2661;50.786;12.728;2022-10-30T15:30:22;16.60;99.90
5276;DHT22;2661;50.786;12.728;2022-10-30T15:32:48;16.50;99.90
5276;DHT22;2661;50.786;12.728;2022-10-30T15:40:27;16.20;99.90
5276;DHT22;2661;50.786;12.728;2022-10-30T15:42:54;16.00;99.90
5276;DHT22;2661;50.786;12.728;2022-10-30T15:45:26;15.80;99.90
5276;DHT22;2661;50.786;12.728;2022-10-30T15:48:38;15.70;99.90
5276;DHT22;2661;50.786;12.728;2022-10-30T15:50:51;15.50;99.90
5276;DHT22;2661;50.786;12.728;2022-10-30T15:53:19;15.30;99.90
5276;DHT22;2661;50.786;12.728;2022-10-30T15:55:46;15.20;99.90
5276;DHT22;2661;50.786;12.728;2022-10-30T15:58:14;15.10;99.90
5276;DHT22;2661;50.786;12.728;2022-10-30T16:00:41;14.90;99.90
5276;DHT22;2661;50.786;12.728;2022-10-30T16:03:19;14.80;99.90
5276;DHT22;2661;50.786;12.728;2022-10-30T16:05:46;14.70;99.90
5276;DHT22;2661;50.786;12.728;2022-10-30T16:08:20;14.60;99.90
5276;DHT22;2661;50.786;12.728;2022-10-30T16:10:47;14.50;99.90
5276;DHT22;2661;50.786;12.728;2022-10-30T16:13:18;14.40;99.90
5276;DHT22;2661;50.786;12.728;2022-10-30T16:15:47;14.30;99.90
5276;DHT22;2661;50.786;12.728;2022-10-30T16:18:16;14.20;99.90
5276;DHT22;2661;50.786;12.728;2022-10-30T16:20:44;14.10;99.90
5276;DHT22;2661;50.786;12.728;2022-10-30T16:23:13;14.10;99.90
5276;DHT22;2661;50.786;12.728;2022-10-30T16:25:40;14.00;99.90
5276;DHT22;2661;50.786;12.728;2022-10-30T16:28:29;13.90;99.90
5276;DHT22;2661;50.786;12.728;2022-10-30T16:30:57;13.80;99.90
5276;DHT22;2661;50.786;12.728;2022-10-30T16:33:26;13.80;99.90
5276;DHT22;2661;50.786;12.728;2022-10-30T16:35:53;13.70;99.90
5276;DHT22;2661;50.786;12.728;2022-10-30T16:38:22;13.60;99.90
5276;DHT22;2661;50.786;12.728;2022-10-30T16:40:49;13.60;99.90
5276;DHT22;2661;50.786;12.728;2022-10-30T16:43:26;13.50;99.90
5276;DHT22;2661;50.786;12.728;2022-10-30T16:45:54;13.50;99.90
5276;DHT22;2661;50.786;12.728;2022-10-30T16:48:22;13.40;99.90
5276;DHT22;2661;50.786;12.728;2022-10-30T16:50:57;13.40;99.90
5276;DHT22;2661;50.786;12.728;2022-10-30T16:53:24;13.30;99.90
5276;DHT22;2661;50.786;12.728;2022-10-30T16:55:51;13.20;99.90
5276;DHT22;2661;50.786;12.728;2022-10-30T16:58:18;13.20;99.90
5276;DHT22;2661;50.786;12.728;2022-10-30T17:00:52;13.20;99.90
5276;DHT22;2661;50.786;12.728;2022-10-30T17:03:21;13.10;99.90
5276;DHT22;2661;50.786;12.728;2022-10-30T17:06:35;13.00;99.90
5276;DHT22;2661;50.786;12.728;2022-10-30T17:08:42;12.90;99.90
5276;DHT22;2661;50.786;12.728;2022-10-30T17:11:15;12.90;99.90
5276;DHT22;2661;50.786;12.728;2022-10-30T17:13:55;12.90;99.90
5276;DHT22;2661;50.786;12.728;2022-10-30T17:16:22;12.90;99.90
5276;DHT22;2661;50.786;12.728;2022-10-30T17:18:55;12.80;99.90
5276;DHT22;2661;50.786;12.728;2022-10-30T17:23:49;12.70;99.90
5276;DHT22;2661;50.786;12.728;2022-10-30T17:26:16;12.70;99.90
5276;DHT22;2661;50.786;12.728;2022-10-30T17:28:43;12.70;99.90
5276;DHT22;2661;50.786;12.728;2022-10-30T17:33:43;12.60;99.90
5276;DHT22;2661;50.786;12.728;2022-10-30T17:36:10;12.50;99.90
5276;DHT22;2661;50.786;12.728;2022-10-30T17:38:37;12.50;99.90
5276;DHT22;2661;50.786;12.728;2022-10-30T17:41:04;12.40;99.90
5276;DHT22;2661;50.786;12.728;2022-10-30T17:43:32;12.40;99.90
5276;DHT22;2661;50.786;12.728;2022-10-30T17:45:59;12.40;99.90
5276;DHT22;2661;50.786;12.728;2022-10-30T17:48:26;12.30;99.90
5276;DHT22;2661;50.786;12.728;2022-10-30T17:50:54;12.30;99.90
5276;DHT22;2661;50.786;12.728;2022-10-30T17:53:21;12.30;99.90
5276;DHT22;2661;50.786;12.728;2022-10-30T17:56:02;12.20;99.90
5276;DHT22;2661;50.786;12.728;2022-10-30T17:58:30;12.20;99.90
5276;DHT22;2661;50.786;12.728;2022-10-30T18:00:57;12.20;99.90